sensor_id;sensor_type;location;lat;lon;timestamp;P1;durP1;ratioP1;P2;durP2;ratioP2
51692;SDS011;37777;53.066;21.638;2024-03-22T00:05:06;63.38;;;33.33;;
51692;SDS011;37777;53.066;21.638;2024-03-22T00:12:06;52.15;;;30.85;;
51692;SDS011;37777;53.066;21.638;2024-03-22T00:19:07;50.92;;;32.33;;
51692;SDS011;37777;53.066;21.638;2024-03-22T00:26:10;67.13;;;36.85;;
51692;SDS011;37777;53.066;21.638;2024-03-22T00:33:11;64.72;;;37.22;;
51692;SDS011;37777;53.066;21.638;2024-03-22T01:29:30;39.10;;;26.73;;
51692;SDS011;37777;53.066;21.638;2024-03-22T01:36:44;38.53;;;26.25;;
51692;SDS011;37777;53.066;21.638;2024-03-22T01:43:44;40.45;;;28.08;;
51692;SDS011;37777;53.066;21.638;2024-03-22T02:07:29;44.17;;;27.77;;
51692;SDS011;37777;53.066;21.638;2024-03-22T02:22:53;52.92;;;28.63;;
51692;SDS011;37777;53.066;21.638;2024-03-22T02:29:53;49.40;;;27.97;;
51692;SDS011;37777;53.066;21.638;2024-03-22T02:53:38;50.72;;;26.15;;
51692;SDS011;37777;53.066;21.638;2024-03-22T03:00:38;44.67;;;25.73;;
51692;SDS011;37777;53.066;21.638;2024-03-22T03:07:54;53.58;;;26.80;;
51692;SDS011;37777;53.066;21.638;2024-03-22T03:14:55;54.72;;;26.05;;
51692;SDS011;37777;53.066;21.638;2024-03-22T03:21:57;58.93;;;27.07;;
51692;SDS011;37777;53.066;21.638;2024-03-22T03:28:57;58.22;;;28.63;;
51692;SDS011;37777;53.066;21.638;2024-03-22T03:35:58;53.87;;;26.20;;
51692;SDS011;37777;53.066;21.638;2024-03-22T03:42:58;55.45;;;27.13;;
51692;SDS011;37777;53.066;21.638;2024-03-22T03:49:58;64.23;;;27.53;;
51692;SDS011;37777;53.066;21.638;2024-03-22T04:13:43;85.60;;;30.42;;
51692;SDS011;37777;53.066;21.638;2024-03-22T04:20:57;83.03;;;30.80;;
51692;SDS011;37777;53.066;21.638;2024-03-22T04:36:29;89.60;;;28.48;;
51692;SDS011;37777;53.066;21.638;2024-03-22T04:43:29;75.65;;;28.45;;
51692;SDS011;37777;53.066;21.638;2024-03-22T04:50:30;69.10;;;27.97;;
51692;SDS011;37777;53.066;21.638;2024-03-22T04:57:31;78.05;;;30.27;;
51692;SDS011;37777;53.066;21.638;2024-03-22T05:12:54;60.45;;;27.27;;
51692;SDS011;37777;53.066;21.638;2024-03-22T05:19:55;73.82;;;29.45;;
51692;SDS011;37777;53.066;21.638;2024-03-22T05:26:55;75.63;;;28.83;;
51692;SDS011;37777;53.066;21.638;2024-03-22T05:33:56;69.80;;;30.53;;
51692;SDS011;37777;53.066;21.638;2024-03-22T05:40:56;65.60;;;28.10;;
51692;SDS011;37777;53.066;21.638;2024-03-22T05:47:57;68.23;;;29.33;;
51692;SDS011;37777;53.066;21.638;2024-03-22T05:54:57;74.37;;;31.13;;
51692;SDS011;37777;53.066;21.638;2024-03-22T06:01:59;66.80;;;29.35;;
51692;SDS011;37777;53.066;21.638;2024-03-22T06:09:00;56.97;;;29.40;;
51692;SDS011;37777;53.066;21.638;2024-03-22T06:16:03;66.97;;;31.05;;
51692;SDS011;37777;53.066;21.638;2024-03-22T06:23:04;69.32;;;30.42;;
51692;SDS011;37777;53.066;21.638;2024-03-22T06:30:05;65.83;;;31.90;;
51692;SDS011;37777;53.066;21.638;2024-03-22T06:37:06;66.88;;;28.35;;
51692;SDS011;37777;53.066;21.638;2024-03-22T06:44:06;55.50;;;27.07;;
51692;SDS011;37777;53.066;21.638;2024-03-22T06:59:30;65.00;;;30.15;;
51692;SDS011;37777;53.066;21.638;2024-03-22T07:06:31;52.97;;;29.00;;
51692;SDS011;37777;53.066;21.638;2024-03-22T07:13:32;58.65;;;28.92;;
51692;SDS011;37777;53.066;21.638;2024-03-22T07:20:33;50.95;;;28.25;;
51692;SDS011;37777;53.066;21.638;2024-03-22T07:44:31;42.88;;;26.30;;
51692;SDS011;37777;53.066;21.638;2024-03-22T07:51:31;42.63;;;27.88;;
51692;SDS011;37777;53.066;21.638;2024-03-22T08:06:54;45.78;;;24.08;;
51692;SDS011;37777;53.066;21.638;2024-03-22T08:13:54;39.90;;;28.05;;
51692;SDS011;37777;53.066;21.638;2024-03-22T08:21:02;39.10;;;29.83;;
51692;SDS011;37777;53.066;21.638;2024-03-22T08:28:03;41.25;;;27.98;;
51692;SDS011;37777;53.066;21.638;2024-03-22T08:43:25;26.63;;;20.30;;
51692;SDS011;37777;53.066;21.638;2024-03-22T08:50:28;27.58;;;23.13;;
51692;SDS011;37777;53.066;21.638;2024-03-22T08:57:28;32.50;;;23.50;;
51692;SDS011;37777;53.066;21.638;2024-03-22T09:04:32;30.88;;;25.75;;
51692;SDS011;37777;53.066;21.638;2024-03-22T09:11:32;32.42;;;29.13;;
51692;SDS011;37777;53.066;21.638;2024-03-22T09:25:52;24.50;;;22.50;;
51692;SDS011;37777;53.066;21.638;2024-03-22T09:32:53;28.67;;;25.50;;
51692;SDS011;37777;53.066;21.638;2024-03-22T09:39:53;29.48;;;26.38;;
51692;SDS011;37777;53.066;21.638;2024-03-22T09:46:54;29.70;;;27.27;;
51692;SDS011;37777;53.066;21.638;2024-03-22T09:53:55;34.70;;;31.55;;
51692;SDS011;37777;53.066;21.638;2024-03-22T10:00:57;37.13;;;34.22;;
51692;SDS011;37777;53.066;21.638;2024-03-22T10:08:01;35.35;;;32.38;;
51692;SDS011;37777;53.066;21.638;2024-03-22T10:15:02;33.85;;;31.35;;
51692;SDS011;37777;53.066;21.638;2024-03-22T10:22:04;28.10;;;25.88;;
51692;SDS011;37777;53.066;21.638;2024-03-22T10:29:08;30.70;;;28.20;;
51692;SDS011;37777;53.066;21.638;2024-03-22T10:36:09;24.70;;;22.90;;
51692;SDS011;37777;53.066;21.638;2024-03-22T10:43:10;24.63;;;22.73;;
51692;SDS011;37777;53.066;21.638;2024-03-22T10:50:11;26.10;;;23.98;;
51692;SDS011;37777;53.066;21.638;2024-03-22T10:57:13;22.40;;;20.55;;
51692;SDS011;37777;53.066;21.638;2024-03-22T11:04:16;26.15;;;24.00;;
51692;SDS011;37777;53.066;21.638;2024-03-22T11:11:18;31.38;;;28.85;;
51692;SDS011;37777;53.066;21.638;2024-03-22T11:18:21;29.30;;;26.80;;
51692;SDS011;37777;53.066;21.638;2024-03-22T11:25:22;25.60;;;23.30;;
51692;SDS011;37777;53.066;21.638;2024-03-22T11:32:22;27.58;;;24.95;;
51692;SDS011;37777;53.066;21.638;2024-03-22T11:39:23;31.83;;;28.75;;
51692;SDS011;37777;53.066;21.638;2024-03-22T11:46:23;33.67;;;30.27;;
51692;SDS011;37777;53.066;21.638;2024-03-22T11:53:25;34.45;;;31.45;;
51692;SDS011;37777;53.066;21.638;2024-03-22T12:00:25;33.20;;;29.97;;
51692;SDS011;37777;53.066;21.638;2024-03-22T12:07:27;33.72;;;29.92;;
51692;SDS011;37777;53.066;21.638;2024-03-22T12:14:28;37.67;;;33.83;;
51692;SDS011;37777;53.066;21.638;2024-03-22T12:21:29;34.30;;;28.93;;
51692;SDS011;37777;53.066;21.638;2024-03-22T12:28:30;33.05;;;27.75;;
51692;SDS011;37777;53.066;21.638;2024-03-22T12:35:31;36.63;;;28.73;;
51692;SDS011;37777;53.066;21.638;2024-03-22T12:50:54;36.58;;;32.90;;
51692;SDS011;37777;53.066;21.638;2024-03-22T12:57:56;35.63;;;29.67;;
51692;SDS011;37777;53.066;21.638;2024-03-22T13:04:57;42.80;;;38.10;;
51692;SDS011;37777;53.066;21.638;2024-03-22T13:12:07;47.88;;;43.40;;
51692;SDS011;37777;53.066;21.638;2024-03-22T13:19:08;45.75;;;40.20;;
51692;SDS011;37777;53.066;21.638;2024-03-22T13:26:12;39.42;;;33.70;;
51692;SDS011;37777;53.066;21.638;2024-03-22T13:33:13;30.27;;;27.08;;
51692;SDS011;37777;53.066;21.638;2024-03-22T13:40:13;29.30;;;26.20;;
51692;SDS011;37777;53.066;21.638;2024-03-22T13:47:15;36.03;;;27.27;;
51692;SDS011;37777;53.066;21.638;2024-03-22T14:02:37;43.45;;;32.80;;
51692;SDS011;37777;53.066;21.638;2024-03-22T14:09:38;37.53;;;30.95;;
51692;SDS011;37777;53.066;21.638;2024-03-22T14:16:40;43.38;;;35.58;;
51692;SDS011;37777;53.066;21.638;2024-03-22T14:32:23;35.65;;;31.80;;
51692;SDS011;37777;53.066;21.638;2024-03-22T14:39:24;33.73;;;29.90;;
51692;SDS011;37777;53.066;21.638;2024-03-22T14:46:24;46.25;;;32.97;;
51692;SDS011;37777;53.066;21.638;2024-03-22T14:53:26;44.10;;;32.15;;
51692;SDS011;37777;53.066;21.638;2024-03-22T15:00:26;47.13;;;32.38;;
51692;SDS011;37777;53.066;21.638;2024-03-22T15:15:56;50.55;;;35.20;;
51692;SDS011;37777;53.066;21.638;2024-03-22T15:22:58;43.90;;;27.73;;
51692;SDS011;37777;53.066;21.638;2024-03-22T15:29:59;46.22;;;27.90;;
51692;SDS011;37777;53.066;21.638;2024-03-22T15:45:21;43.53;;;28.00;;
51692;SDS011;37777;53.066;21.638;2024-03-22T15:52:23;48.67;;;28.70;;
51692;SDS011;37777;53.066;21.638;2024-03-22T15:59:27;42.28;;;27.42;;
51692;SDS011;37777;53.066;21.638;2024-03-22T16:06:27;40.08;;;24.33;;
51692;SDS011;37777;53.066;21.638;2024-03-22T16:13:28;42.58;;;28.83;;
51692;SDS011;37777;53.066;21.638;2024-03-22T16:20:28;48.20;;;29.03;;
51692;SDS011;37777;53.066;21.638;2024-03-22T16:27:29;47.20;;;30.25;;
51692;SDS011;37777;53.066;21.638;2024-03-22T16:34:30;39.35;;;24.80;;
51692;SDS011;37777;53.066;21.638;2024-03-22T16:41:30;45.87;;;30.13;;
51692;SDS011;37777;53.066;21.638;2024-03-22T16:48:31;36.30;;;27.33;;
51692;SDS011;37777;53.066;21.638;2024-03-22T16:55:31;37.72;;;28.42;;
51692;SDS011;37777;53.066;21.638;2024-03-22T17:02:32;34.20;;;30.17;;
51692;SDS011;37777;53.066;21.638;2024-03-22T17:09:32;40.93;;;33.10;;
51692;SDS011;37777;53.066;21.638;2024-03-22T17:16:33;45.90;;;36.35;;
51692;SDS011;37777;53.066;21.638;2024-03-22T17:23:34;31.10;;;28.07;;
51692;SDS011;37777;53.066;21.638;2024-03-22T17:30:35;42.25;;;34.08;;
51692;SDS011;37777;53.066;21.638;2024-03-22T17:37:36;45.80;;;34.88;;
51692;SDS011;37777;53.066;21.638;2024-03-22T17:44:49;41.17;;;31.35;;
51692;SDS011;37777;53.066;21.638;2024-03-22T17:51:50;42.58;;;29.77;;
51692;SDS011;37777;53.066;21.638;2024-03-22T17:58:50;46.73;;;27.57;;
51692;SDS011;37777;53.066;21.638;2024-03-22T18:05:51;40.15;;;27.13;;
51692;SDS011;37777;53.066;21.638;2024-03-22T18:12:57;41.92;;;27.17;;
51692;SDS011;37777;53.066;21.638;2024-03-22T18:19:58;45.38;;;28.77;;
51692;SDS011;37777;53.066;21.638;2024-03-22T18:35:41;37.72;;;27.63;;
51692;SDS011;37777;53.066;21.638;2024-03-22T18:42:42;37.15;;;25.95;;
51692;SDS011;37777;53.066;21.638;2024-03-22T18:49:43;39.00;;;24.90;;
51692;SDS011;37777;53.066;21.638;2024-03-22T18:56:44;41.60;;;27.38;;
51692;SDS011;37777;53.066;21.638;2024-03-22T19:03:45;44.47;;;29.17;;
51692;SDS011;37777;53.066;21.638;2024-03-22T19:10:46;41.90;;;28.07;;
51692;SDS011;37777;53.066;21.638;2024-03-22T19:17:46;44.63;;;28.27;;
51692;SDS011;37777;53.066;21.638;2024-03-22T19:24:47;42.30;;;28.42;;
51692;SDS011;37777;53.066;21.638;2024-03-22T19:31:48;43.92;;;31.00;;
51692;SDS011;37777;53.066;21.638;2024-03-22T19:38:48;44.13;;;30.87;;
51692;SDS011;37777;53.066;21.638;2024-03-22T19:45:55;49.07;;;29.43;;
51692;SDS011;37777;53.066;21.638;2024-03-22T19:53:00;44.25;;;29.10;;
51692;SDS011;37777;53.066;21.638;2024-03-22T20:00:19;48.55;;;36.75;;
51692;SDS011;37777;53.066;21.638;2024-03-22T20:07:20;47.78;;;42.22;;
51692;SDS011;37777;53.066;21.638;2024-03-22T20:14:20;47.80;;;42.80;;
51692;SDS011;37777;53.066;21.638;2024-03-22T20:21:21;47.75;;;38.65;;
51692;SDS011;37777;53.066;21.638;2024-03-22T20:28:21;38.83;;;33.07;;
51692;SDS011;37777;53.066;21.638;2024-03-22T20:35:22;38.65;;;29.40;;
